Terminal Aerodrome Forecast
Issued by NWS

Home | Current Version | Previous Version | Text Only | Print | Product List | Glossary On
Versions: 1 2 3 4 5 6 7 8 9 10 11 12 13 14
000
FTUS42 KGSP 291427 AAB
TAFAND
TAF AMD
KAND 291427Z 2914/3012 06004KT P6SM SCT006 OVC090
      TEMPO 2914/2916 -RA BKN006 OVC090
     FM291600 07003KT 6SM -SHRA BR OVC020
     FM292300 00000KT P6SM OVC009
     FM300400 00000KT 2SM BR OVC003=

USA.gov is the U.S. government's official web portal to all federal, state and local government web resources and services.